Newton, NC (28658)

7:23 AM EDT on September 05, 2015 (GMT -0400)
Cambridge Place Townhomes-Thornburg Drive, Conover | | Change Station
CLOSE
Current Station
Personal Weather Station
Location: Conover, NC
Elevation: 1017 ft
Nearby Weather Stations

Elev 1017 ft 35.71 °N, 81.20 °W | Updated 12 minutes ago

Mostly Cloudy
Mostly Cloudy
69.3 °F
Feels Like 69.3 °F
N
0.0
Wind Variable Wind from WSW

Today
High -- | Low -- °F
--% Chance of Precip.
Yesterday
High -- | Low -- °F
Precip. -- in
6:59 AM 7:46 PM
Waning Gibbous, 49% visible
Pressure 30.11 in
Visibility 9.0 miles
Clouds Overcast 1300 ft
Dew Point 61 °F
Humidity 75%
Rainfall 0.00 in
Snow Depth Not available.
UV 0 out of 12
Pollen 7.00 out of 12
Air Quality Not available.
Flu Activity Not available.
METAR KHKY 051053Z 35003KT 9SM OVC013 20/18 A3017 RMK AO2 LTG DSNT E AND SE SLP195 T02000178
Pressure 30.11 in
Visibility 9.0 miles
Clouds Overcast 1300 ft
Dew Point 61 °F
Humidity 75%
Rainfall 0.00 in
Snow Depth Not available.
UV 0 out of 12
Pollen 7.00 out of 12
Air Quality Not available.
Flu Activity Not available.
METAR KHKY 051053Z 35003KT 9SM OVC013 20/18 A3017 RMK AO2 LTG DSNT E AND SE SLP195 T02000178

10-Day Weather Forecast

×

Almanac

Astronomy

Sep. 05, 2015 Rise Set
Actual Time
Civil Twilight
Nautical Twilight
Astronomical Twilight
Moon
Length of Visible Light
Length of Day
Tomorrow will be .
, % of the Moon is Illuminated

Today's Extremes

State Highs State Lows

Community

WunderPhotos

Upload Photos

1,852,445 photos uploaded!

WunderBlogs® & News

Nearby

Air Quality

  Air Quality AQ Index Pollutant
Not available.

Snow Depth

Station Depth Elevation

Earthquake Activity

City Distance Mag. Time & Date
Minimum magnitude displayed is 2.5.

Coastal Water Temperatures

Place Temperature

Stations

Nearby Weather Stations

Station Location Temp. Windchill Dew Point Humidity Wind Precip. Elev Updated Type